Ashby, Nebraska
Current Conditions -  °F | °C
As of 11:53 PM on Friday 19 Dec 2014 (Local Time) from KAIA Reporting Station
Clear Clear  
Wind Chill: 13°   Ceiling: Unl
Heat Index: 13°   Visibility: 10mi
Dew Point: 11°   Wind: 0mph
Humidity: 92%   Direction: NA
Pressure: 29.97"   Gusts: NA
Location:  42.02°N, 101.93°W
Report Text: KAIA 200653Z AUTO 00000KT 10SM CLR M11/M12 A2997 RMK AO2 SLP186 I1000 T11061117 400221172
Loading
Personal Weather Stations






























Interactive Weather Map New forecast layout! Learn more

10-Day Weather Forecast

Advertisements
Track Severe Weather on mobile